createdAt,value
2023-09-13T00:00:13.260Z,2.80
2023-09-13T00:02:43.367Z,2.50
2023-09-13T00:05:12.450Z,2.85
2023-09-13T00:07:41.490Z,2.50
2023-09-13T00:10:10.978Z,2.90
2023-09-13T00:12:39.804Z,2.58
2023-09-13T00:15:09.713Z,2.30
2023-09-13T00:17:40.055Z,2.65
2023-09-13T00:20:10.595Z,2.60
2023-09-13T00:22:39.564Z,2.60
2023-09-13T00:25:08.952Z,3.10
2023-09-13T00:27:37.827Z,2.80
2023-09-13T00:30:10.251Z,2.40
2023-09-13T00:32:40.897Z,2.88
2023-09-13T00:35:10.363Z,2.70
2023-09-13T00:37:39.574Z,2.70
2023-09-13T00:40:10.054Z,2.80
2023-09-13T00:42:39.412Z,2.65
2023-09-13T00:45:09.472Z,2.60
2023-09-13T00:47:40.053Z,2.95
2023-09-13T00:50:11.493Z,2.63
2023-09-13T00:52:42.448Z,2.65
2023-09-13T00:55:13.392Z,2.63
2023-09-13T00:57:42.644Z,2.60
2023-09-13T01:00:13.108Z,2.80
2023-09-13T01:02:44.360Z,2.70
2023-09-13T01:05:15.950Z,2.80
2023-09-13T01:07:47.148Z,2.75
2023-09-13T01:10:16.244Z,3.37
2023-09-13T01:12:45.127Z,3.17
2023-09-13T01:15:15.349Z,3.00
2023-09-13T01:17:54.717Z,2.87
2023-09-13T01:20:35.763Z,2.73
2023-09-13T01:23:38.027Z,2.87
2023-09-13T01:26:34.275Z,3.20
2023-09-13T01:29:07.339Z,3.10
2023-09-13T01:31:39.010Z,3.10
2023-09-13T01:34:08.062Z,3.03
2023-09-13T01:36:37.260Z,2.97
2023-09-13T01:39:06.943Z,3.10
2023-09-13T01:41:40.577Z,3.27
2023-09-13T01:44:11.887Z,3.30
2023-09-13T01:46:45.725Z,2.77
2023-09-13T01:49:19.802Z,2.80
2023-09-13T01:51:50.340Z,3.17
2023-09-13T01:54:21.079Z,3.03
2023-09-13T01:56:50.031Z,2.90
2023-09-13T01:59:20.389Z,3.30
2023-09-13T02:01:49.443Z,3.03
2023-09-13T02:04:18.631Z,3.33
2023-09-13T02:06:47.620Z,3.47
2023-09-13T02:09:17.870Z,3.27
2023-09-13T02:11:46.766Z,3.03
2023-09-13T02:14:15.611Z,2.90
2023-09-13T02:16:47.024Z,3.50
2023-09-13T02:19:16.007Z,3.40
2023-09-13T02:21:48.277Z,3.13
2023-09-13T02:24:17.209Z,2.90
2023-09-13T02:26:46.059Z,3.20
2023-09-13T02:29:15.059Z,3.10
2023-09-13T02:31:45.043Z,3.13
2023-09-13T02:34:16.214Z,3.30
2023-09-13T02:36:47.110Z,3.30
2023-09-13T02:39:35.217Z,2.97
2023-09-13T02:42:04.316Z,3.30
2023-09-13T02:44:34.601Z,3.67
2023-09-13T02:47:04.206Z,2.93
2023-09-13T02:49:36.455Z,3.60
2023-09-13T02:52:06.504Z,3.27
2023-09-13T02:54:35.645Z,3.90
2023-09-13T02:57:04.592Z,3.50
2023-09-13T02:59:35.441Z,3.80
2023-09-13T03:02:04.639Z,3.10
2023-09-13T03:04:33.724Z,3.17
2023-09-13T03:07:04.716Z,3.00
2023-09-13T03:09:34.328Z,3.00
2023-09-13T03:12:04.621Z,3.40
2023-09-13T03:14:34.796Z,3.07
2023-09-13T03:17:03.774Z,3.17
2023-09-13T03:19:32.989Z,3.17
2023-09-13T03:22:04.509Z,2.93
2023-09-13T03:24:33.582Z,3.07
2023-09-13T03:27:04.115Z,3.63
2023-09-13T03:29:35.413Z,3.57
2023-09-13T03:32:04.774Z,3.47
2023-09-13T03:34:37.124Z,3.70
2023-09-13T03:37:08.117Z,2.90
2023-09-13T03:39:37.059Z,2.63
2023-09-13T03:42:06.197Z,2.90
2023-09-13T03:44:35.341Z,2.83
2023-09-13T03:47:05.392Z,2.97
2023-09-13T03:49:34.759Z,3.50
2023-09-13T03:52:04.317Z,3.37
2023-09-13T03:54:34.684Z,3.03
2023-09-13T03:57:03.624Z,2.90
2023-09-13T03:59:32.513Z,3.20
2023-09-13T04:02:04.704Z,3.40
2023-09-13T04:04:33.836Z,3.43
2023-09-13T04:07:03.855Z,3.00
2023-09-13T04:09:36.297Z,2.97
2023-09-13T04:12:05.193Z,3.00
2023-09-13T04:14:34.281Z,2.97
2023-09-13T04:17:03.861Z,3.03
2023-09-13T04:19:33.980Z,3.37
2023-09-13T04:22:03.076Z,3.67
2023-09-13T04:24:32.208Z,3.33
2023-09-13T04:27:03.039Z,3.63
2023-09-13T04:29:32.054Z,3.47
2023-09-13T04:32:00.959Z,3.60
2023-09-13T04:34:32.125Z,3.17
2023-09-13T04:37:01.080Z,3.07
2023-09-13T04:39:32.693Z,3.27
2023-09-13T04:42:03.694Z,3.07
2023-09-13T04:44:32.573Z,3.57
2023-09-13T04:47:04.636Z,3.37
2023-09-13T04:49:33.607Z,2.97
2023-09-13T04:52:03.719Z,3.47
2023-09-13T04:54:32.744Z,3.03
2023-09-13T04:57:03.166Z,3.20
2023-09-13T04:59:44.280Z,4.00
2023-09-13T05:02:13.830Z,3.53
2023-09-13T05:04:44.693Z,3.37
2023-09-13T05:07:13.669Z,3.27
2023-09-13T05:09:42.591Z,3.73
2023-09-13T05:12:12.933Z,3.90
2023-09-13T05:14:43.913Z,3.27
2023-09-13T05:17:13.059Z,4.30
2023-09-13T05:19:41.842Z,4.27
2023-09-13T05:22:10.776Z,3.30
2023-09-13T05:24:41.008Z,4.00
2023-09-13T05:27:09.874Z,3.87
2023-09-13T05:29:40.177Z,4.53
2023-09-13T05:32:09.400Z,3.50
2023-09-13T05:34:38.582Z,3.60
2023-09-13T05:37:08.821Z,3.40
2023-09-13T05:39:37.703Z,4.13
2023-09-13T05:42:06.961Z,3.67
2023-09-13T05:44:35.698Z,3.70
2023-09-13T05:47:07.493Z,3.67
2023-09-13T05:49:36.318Z,4.00
2023-09-13T05:52:05.474Z,3.27
2023-09-13T05:54:34.523Z,3.77
2023-09-13T05:57:03.587Z,3.67
2023-09-13T05:59:36.824Z,3.17
2023-09-13T06:02:10.381Z,3.70
2023-09-13T06:04:40.256Z,3.60
2023-09-13T06:07:10.550Z,3.30
2023-09-13T06:09:39.416Z,3.47
2023-09-13T06:12:26.927Z,3.73
2023-09-13T06:15:32.679Z,3.20
2023-09-13T06:18:03.417Z,3.97
2023-09-13T06:20:32.855Z,3.37
2023-09-13T06:23:02.738Z,3.57
2023-09-13T06:25:31.912Z,3.30
2023-09-13T06:28:00.837Z,3.83
2023-09-13T06:30:30.035Z,4.20
2023-09-13T06:33:11.188Z,4.40
2023-09-13T06:35:42.873Z,5.85
2023-09-13T06:38:12.634Z,6.72
2023-09-13T06:40:45.931Z,7.60
2023-09-13T06:43:30.620Z,6.82
2023-09-13T06:46:06.302Z,6.32
2023-09-13T06:48:37.728Z,3.95
2023-09-13T06:53:41.390Z,1.98
2023-09-13T06:56:13.905Z,2.20
2023-09-13T06:58:44.076Z,2.53
2023-09-13T07:01:35.365Z,2.53
2023-09-13T07:04:09.410Z,2.45
2023-09-13T07:06:42.779Z,2.03
2023-09-13T07:09:12.303Z,2.03
2023-09-13T07:11:41.259Z,1.80
2023-09-13T07:14:10.193Z,1.80
2023-09-13T07:16:39.219Z,1.95
2023-09-13T07:19:08.225Z,1.58
2023-09-13T07:21:36.984Z,1.70
2023-09-13T07:24:07.894Z,1.50
2023-09-13T07:26:36.814Z,1.63
2023-09-13T07:29:05.755Z,1.48
2023-09-13T07:31:34.884Z,1.55
2023-09-13T07:34:04.668Z,1.40
2023-09-13T07:36:33.483Z,1.40
2023-09-13T07:39:04.841Z,1.45
2023-09-13T07:41:35.102Z,1.50
2023-09-13T07:44:05.149Z,1.58
2023-09-13T07:46:34.135Z,1.27
2023-09-13T07:49:06.037Z,1.35
2023-09-13T07:51:35.031Z,1.20
2023-09-13T07:54:06.279Z,1.10
2023-09-13T07:56:38.808Z,1.23
2023-09-13T07:59:08.890Z,1.00
2023-09-13T08:01:39.115Z,1.50
2023-09-13T08:04:09.281Z,1.30
2023-09-13T08:06:38.382Z,1.95
2023-09-13T08:09:07.304Z,1.77
2023-09-13T08:11:37.539Z,1.38
2023-09-13T08:14:07.550Z,1.17
2023-09-13T08:16:37.498Z,1.40
2023-09-13T08:19:06.699Z,1.63
2023-09-13T08:21:35.620Z,2.13
2023-09-13T08:24:05.857Z,2.25
2023-09-13T08:26:34.746Z,1.50
2023-09-13T08:29:05.667Z,1.50
2023-09-13T08:31:34.732Z,1.40
2023-09-13T08:34:04.698Z,1.40
2023-09-13T08:36:34.961Z,1.70
2023-09-13T08:39:06.546Z,1.38
2023-09-13T08:41:36.752Z,1.65
2023-09-13T08:44:09.307Z,1.10
2023-09-13T08:46:39.091Z,1.10
2023-09-13T08:49:10.555Z,1.20
2023-09-13T08:51:40.228Z,1.25
2023-09-13T08:54:10.446Z,1.25
2023-09-13T08:56:44.004Z,1.20
2023-09-13T08:59:14.847Z,1.30
2023-09-13T09:01:49.328Z,1.08
2023-09-13T09:04:19.132Z,1.40
2023-09-13T09:06:48.438Z,1.60
2023-09-13T09:09:21.440Z,1.35
2023-09-13T09:11:57.329Z,1.30
2023-09-13T09:14:32.948Z,1.60
2023-09-13T09:17:03.640Z,1.27
2023-09-13T09:19:33.398Z,1.52
2023-09-13T09:22:04.647Z,1.30
2023-09-13T09:24:33.942Z,1.83
2023-09-13T09:27:02.894Z,1.17
2023-09-13T09:29:41.043Z,1.35
2023-09-13T09:32:10.725Z,1.52
2023-09-13T09:34:44.297Z,0.95
2023-09-13T09:37:13.259Z,1.08
2023-09-13T09:39:44.124Z,1.10
2023-09-13T09:42:17.273Z,1.20
2023-09-13T09:44:47.565Z,0.90
2023-09-13T09:47:17.222Z,0.88
2023-09-13T09:49:48.356Z,1.00
2023-09-13T09:52:18.073Z,0.90
2023-09-13T09:54:49.645Z,0.90
2023-09-13T09:57:23.704Z,0.98
2023-09-13T09:59:54.610Z,1.10
2023-09-13T10:02:28.990Z,1.00
2023-09-13T10:04:58.117Z,0.75
2023-09-13T10:07:26.922Z,0.80
2023-09-13T10:09:56.854Z,1.00
2023-09-13T10:12:25.854Z,0.90
2023-09-13T10:14:58.279Z,0.85
2023-09-13T10:17:27.934Z,1.00
2023-09-13T10:19:57.226Z,0.88
2023-09-13T10:22:30.325Z,0.80
2023-09-13T10:25:05.457Z,0.75
2023-09-13T10:27:37.769Z,0.90
2023-09-13T10:30:12.991Z,0.77
2023-09-13T10:32:49.116Z,0.90
2023-09-13T10:35:20.355Z,0.70
2023-09-13T10:38:06.279Z,0.73
2023-09-13T10:40:41.936Z,0.90
2023-09-13T10:43:11.453Z,0.80
2023-09-13T10:45:43.232Z,0.68
2023-09-13T10:48:13.137Z,0.80
2023-09-13T10:50:42.413Z,0.85
2023-09-13T10:53:13.398Z,0.82
2023-09-13T10:55:43.786Z,0.93
2023-09-13T10:58:14.910Z,0.70
2023-09-13T11:00:49.378Z,0.88
2023-09-13T11:03:19.547Z,0.70
2023-09-13T11:05:52.473Z,0.80
2023-09-13T11:08:32.183Z,1.00
2023-09-13T11:11:10.863Z,0.73
2023-09-13T11:13:39.873Z,0.60
2023-09-13T11:16:16.570Z,0.85
2023-09-13T11:18:50.120Z,0.90
2023-09-13T11:21:23.620Z,0.70
2023-09-13T11:26:50.352Z,0.70
2023-09-13T11:29:27.723Z,0.60
2023-09-13T11:32:05.511Z,1.58
2023-09-13T11:34:36.281Z,0.80
2023-09-13T11:37:09.106Z,0.98
2023-09-13T11:39:39.970Z,0.82
2023-09-13T11:42:21.699Z,0.75
2023-09-13T11:45:03.411Z,1.00
2023-09-13T11:47:39.158Z,1.00
2023-09-13T11:50:13.965Z,1.00
2023-09-13T11:53:11.213Z,0.90
2023-09-13T11:55:41.119Z,0.88
2023-09-13T11:58:27.712Z,0.85
2023-09-13T12:01:05.177Z,0.90
2023-09-13T12:06:30.630Z,2.55
2023-09-13T12:09:04.467Z,1.13
2023-09-13T12:11:37.070Z,0.93
2023-09-13T12:14:12.528Z,0.95
2023-09-13T12:16:45.073Z,0.90
2023-09-13T12:19:15.663Z,0.95
2023-09-13T12:21:45.963Z,0.98
2023-09-13T12:24:20.641Z,1.10
2023-09-13T12:26:53.255Z,0.85
2023-09-13T12:29:23.314Z,0.77
2023-09-13T12:31:56.796Z,0.80
2023-09-13T12:34:28.035Z,0.80
2023-09-13T12:36:58.090Z,0.90
2023-09-13T12:39:26.973Z,0.80
2023-09-13T12:41:56.006Z,0.70
2023-09-13T12:44:24.991Z,0.80
2023-09-13T12:46:56.018Z,0.80
2023-09-13T12:49:26.068Z,0.90
2023-09-13T12:51:56.560Z,0.82
2023-09-13T12:54:25.402Z,0.77
2023-09-13T12:56:54.386Z,0.80
2023-09-13T12:59:23.246Z,0.77
2023-09-13T13:01:57.269Z,0.80
2023-09-13T13:04:33.639Z,0.85
2023-09-13T13:07:05.222Z,0.80
2023-09-13T13:09:34.194Z,0.68
2023-09-13T13:12:03.472Z,0.75
2023-09-13T13:14:32.430Z,0.70
2023-09-13T13:17:02.908Z,0.60
2023-09-13T13:19:51.701Z,0.60
2023-09-13T13:22:23.753Z,0.80
2023-09-13T13:24:53.921Z,0.98
2023-09-13T13:27:23.159Z,0.80
2023-09-13T13:29:52.904Z,0.80
2023-09-13T13:32:21.981Z,0.90
2023-09-13T13:34:51.204Z,0.70
2023-09-13T13:37:22.866Z,0.80
2023-09-13T13:39:51.772Z,0.70
2023-09-13T13:42:20.692Z,0.70
2023-09-13T13:44:49.586Z,0.88
2023-09-13T13:47:19.410Z,0.80
2023-09-13T13:49:49.686Z,0.80
2023-09-13T13:52:18.636Z,0.73
2023-09-13T13:54:49.012Z,0.80
2023-09-13T13:57:19.125Z,1.02
2023-09-13T13:59:49.008Z,1.00
2023-09-13T14:02:17.954Z,1.10
2023-09-13T14:04:48.518Z,1.10
2023-09-13T14:07:17.389Z,0.90
2023-09-13T14:09:46.321Z,0.85
2023-09-13T14:12:16.647Z,1.13
2023-09-13T14:14:45.595Z,1.23
2023-09-13T14:17:14.384Z,1.27
2023-09-13T14:19:43.226Z,1.10
2023-09-13T14:22:13.130Z,1.10
2023-09-13T14:24:41.972Z,1.30
2023-09-13T14:27:10.954Z,1.27
2023-09-13T14:29:41.204Z,1.20
2023-09-13T14:32:11.645Z,0.90
2023-09-13T14:34:43.616Z,1.40
2023-09-13T14:37:12.681Z,1.50
2023-09-13T14:39:41.566Z,1.77
2023-09-13T14:42:10.422Z,1.90
2023-09-13T14:44:42.209Z,2.17
2023-09-13T14:47:11.226Z,2.17
2023-09-13T14:49:40.721Z,2.22
2023-09-13T14:52:09.672Z,2.15
2023-09-13T14:54:38.780Z,1.92
2023-09-13T14:57:08.829Z,2.38
2023-09-13T14:59:37.765Z,1.88
2023-09-13T15:02:08.496Z,1.45
2023-09-13T15:04:37.514Z,1.95
2023-09-13T15:07:06.413Z,1.65
2023-09-13T15:09:35.342Z,1.70
2023-09-13T15:12:04.378Z,1.40
2023-09-13T15:14:33.192Z,1.80
2023-09-13T15:17:02.053Z,1.73
2023-09-13T15:19:32.448Z,1.52
2023-09-13T15:22:02.530Z,1.90
2023-09-13T15:24:36.779Z,1.67
2023-09-13T15:27:06.138Z,1.60
2023-09-13T15:29:35.199Z,1.65
2023-09-13T15:32:11.858Z,1.73
2023-09-13T15:34:42.845Z,1.58
2023-09-13T15:37:11.780Z,1.65
2023-09-13T15:39:42.855Z,2.08
2023-09-13T15:42:11.827Z,1.50
2023-09-13T15:44:40.660Z,1.85
2023-09-13T15:47:09.657Z,1.50
2023-09-13T15:49:38.534Z,1.48
2023-09-13T15:52:09.192Z,1.80
2023-09-13T15:54:39.141Z,1.58
2023-09-13T15:57:08.097Z,1.38
2023-09-13T15:59:36.925Z,1.15
2023-09-13T16:02:06.208Z,1.10
2023-09-13T16:04:35.693Z,1.33
2023-09-13T16:07:04.607Z,1.13
2023-09-13T16:09:36.305Z,1.67
2023-09-13T16:12:05.655Z,1.50
2023-09-13T16:14:36.236Z,1.40
2023-09-13T16:17:06.536Z,1.60
2023-09-13T16:19:35.408Z,1.63
2023-09-13T16:22:05.698Z,1.80
2023-09-13T16:24:36.053Z,1.20
2023-09-13T16:27:05.880Z,1.30
2023-09-13T16:29:34.777Z,1.40
2023-09-13T16:32:04.613Z,1.23
2023-09-13T16:34:33.835Z,1.30
2023-09-13T16:37:03.315Z,1.00
2023-09-13T16:39:32.280Z,1.30
2023-09-13T16:42:02.787Z,1.30
2023-09-13T16:44:32.719Z,1.48
2023-09-13T16:47:01.572Z,1.20
2023-09-13T16:49:30.856Z,1.60
2023-09-13T16:51:59.790Z,1.70
2023-09-13T16:54:29.401Z,1.38
2023-09-13T16:56:59.302Z,1.70
2023-09-13T16:59:29.613Z,1.90
2023-09-13T17:01:58.530Z,1.70
2023-09-13T17:04:27.929Z,2.13
2023-09-13T17:06:56.842Z,2.38
2023-09-13T17:09:25.838Z,2.20
2023-09-13T17:11:55.261Z,2.50
2023-09-13T17:14:24.146Z,2.20
2023-09-13T17:16:54.608Z,2.30
2023-09-13T17:19:23.465Z,2.13
2023-09-13T17:21:52.854Z,2.42
2023-09-13T17:24:21.829Z,2.17
2023-09-13T17:27:00.000Z,2.17
2023-09-13T17:29:36.954Z,2.00
2023-09-13T17:32:08.787Z,1.75
2023-09-13T17:34:39.054Z,2.30
2023-09-13T17:37:07.891Z,2.13
2023-09-13T17:39:36.866Z,1.90
2023-09-13T17:42:06.342Z,1.70
2023-09-13T17:44:35.266Z,2.05
2023-09-13T17:47:07.838Z,1.90
2023-09-13T17:49:36.949Z,1.90
2023-09-13T17:52:06.216Z,1.30
2023-09-13T17:54:35.254Z,1.50
2023-09-13T17:57:04.529Z,1.50
2023-09-13T17:59:33.500Z,2.20
2023-09-13T18:02:02.556Z,1.60
2023-09-13T18:04:33.028Z,1.73
2023-09-13T18:07:02.877Z,1.40
2023-09-13T18:09:31.872Z,1.73
2023-09-13T18:12:00.748Z,1.63
2023-09-13T18:14:30.159Z,1.60
2023-09-13T18:16:59.164Z,1.70
2023-09-13T18:19:28.183Z,1.33
2023-09-13T18:21:58.645Z,1.52
2023-09-13T18:24:38.843Z,1.40
2023-09-13T18:27:10.464Z,1.30
2023-09-13T18:29:39.514Z,1.73
2023-09-13T18:32:10.523Z,1.58
2023-09-13T18:34:41.962Z,1.63
2023-09-13T18:37:12.368Z,1.35
2023-09-13T18:39:41.220Z,1.33
2023-09-13T18:42:10.137Z,1.63
2023-09-13T18:44:39.087Z,1.38
2023-09-13T18:47:08.246Z,1.63
2023-09-13T18:49:37.067Z,2.95
2023-09-13T18:52:06.557Z,2.65
2023-09-13T18:54:37.096Z,2.65
2023-09-13T18:57:06.272Z,2.40
2023-09-13T18:59:36.893Z,1.70
2023-09-13T19:02:06.388Z,1.90
2023-09-13T19:04:36.564Z,1.75
2023-09-13T19:07:10.320Z,1.67
2023-09-13T19:09:41.803Z,1.65
2023-09-13T19:12:13.281Z,1.65
2023-09-13T19:14:42.749Z,1.52
2023-09-13T19:17:11.548Z,1.30
2023-09-13T19:19:40.523Z,1.40
2023-09-13T19:22:09.474Z,1.40
2023-09-13T19:24:46.604Z,1.40
2023-09-13T19:27:26.930Z,1.30
2023-09-13T19:29:56.170Z,1.25
2023-09-13T19:32:25.151Z,1.20
2023-09-13T19:34:54.035Z,1.00
2023-09-13T19:37:22.884Z,1.50
2023-09-13T19:39:51.827Z,1.30
2023-09-13T19:42:21.014Z,1.73
2023-09-13T19:44:51.392Z,1.43
2023-09-13T19:47:20.319Z,1.37
2023-09-13T19:49:49.124Z,1.20
2023-09-13T19:52:18.125Z,1.25
2023-09-13T19:54:47.269Z,1.20
2023-09-13T19:57:18.743Z,1.27
2023-09-13T19:59:47.736Z,1.17
2023-09-13T20:02:19.927Z,1.20
2023-09-13T20:04:48.880Z,1.20
2023-09-13T20:07:17.726Z,1.20
2023-09-13T20:09:46.854Z,1.33
2023-09-13T20:12:15.840Z,1.13
2023-09-13T20:14:46.697Z,1.20
2023-09-13T20:17:15.734Z,1.10
2023-09-13T20:19:46.160Z,1.20
2023-09-13T20:22:15.188Z,1.10
2023-09-13T20:24:44.112Z,1.23
2023-09-13T20:27:13.261Z,1.20
2023-09-13T20:29:42.169Z,1.20
2023-09-13T20:32:12.446Z,1.67
2023-09-13T20:34:43.713Z,1.40
2023-09-13T20:37:14.198Z,1.20
2023-09-13T20:39:43.042Z,1.10
2023-09-13T20:42:12.474Z,1.33
2023-09-13T20:44:41.305Z,1.10
2023-09-13T20:47:10.874Z,1.20
2023-09-13T20:49:39.657Z,1.20
2023-09-13T20:52:09.745Z,1.40
2023-09-13T20:54:40.196Z,1.13
2023-09-13T20:57:09.705Z,1.47
2023-09-13T20:59:38.519Z,1.20
2023-09-13T21:02:07.554Z,1.30
2023-09-13T21:04:36.592Z,1.20
2023-09-13T21:07:08.617Z,1.27
2023-09-13T21:09:38.378Z,1.13
2023-09-13T21:12:09.129Z,1.20
2023-09-13T21:14:38.095Z,1.30
2023-09-13T21:17:07.011Z,1.20
2023-09-13T21:19:36.949Z,1.40
2023-09-13T21:22:06.219Z,1.30
2023-09-13T21:24:35.253Z,1.23
2023-09-13T21:27:04.361Z,1.00
2023-09-13T21:29:35.107Z,1.20
2023-09-13T21:32:04.159Z,1.30
2023-09-13T21:34:36.708Z,1.30
2023-09-13T21:37:09.786Z,1.27
2023-09-13T21:39:38.738Z,1.40
2023-09-13T21:42:07.813Z,1.27
2023-09-13T21:44:38.057Z,1.30
2023-09-13T21:47:07.144Z,1.40
2023-09-13T21:49:36.230Z,1.30
2023-09-13T21:52:05.341Z,1.37
2023-09-13T21:54:43.513Z,0.97
2023-09-13T21:57:12.560Z,1.20
2023-09-13T21:59:42.921Z,1.20
2023-09-13T22:02:12.044Z,1.33
2023-09-13T22:04:41.519Z,1.30
2023-09-13T22:07:10.712Z,1.30
2023-09-13T22:09:39.679Z,1.30
2023-09-13T22:12:10.041Z,1.33
2023-09-13T22:14:38.966Z,1.17
2023-09-13T22:17:09.342Z,1.13
2023-09-13T22:19:38.263Z,1.20
2023-09-13T22:22:07.298Z,1.20
2023-09-13T22:24:36.245Z,1.13
2023-09-13T22:27:05.602Z,1.10
2023-09-13T22:29:34.981Z,1.17
2023-09-13T22:32:04.122Z,1.47
2023-09-13T22:34:36.689Z,1.40
2023-09-13T22:37:06.137Z,1.40
2023-09-13T22:39:35.189Z,0.97
2023-09-13T22:42:05.790Z,1.10
2023-09-13T22:44:36.582Z,1.40
2023-09-13T22:47:06.302Z,1.00
2023-09-13T22:49:37.254Z,1.00
2023-09-13T22:52:06.871Z,1.23
2023-09-13T22:54:35.800Z,1.50
2023-09-13T22:57:04.818Z,1.20
2023-09-13T22:59:33.750Z,1.10
2023-09-13T23:02:02.723Z,1.00
2023-09-13T23:04:31.871Z,1.17
2023-09-13T23:07:02.362Z,1.50
2023-09-13T23:09:31.356Z,1.40
2023-09-13T23:12:00.440Z,1.13
2023-09-13T23:14:29.558Z,1.17
2023-09-13T23:16:59.293Z,1.03
2023-09-13T23:19:28.238Z,1.40
2023-09-13T23:21:57.047Z,1.30
2023-09-13T23:24:27.471Z,1.20
2023-09-13T23:26:56.305Z,1.20
2023-09-13T23:29:25.188Z,1.20
2023-09-13T23:31:56.084Z,1.67
2023-09-13T23:34:25.195Z,1.07
2023-09-13T23:36:54.412Z,1.10
2023-09-13T23:39:23.298Z,1.10
2023-09-13T23:41:53.674Z,1.40
2023-09-13T23:44:22.517Z,1.20
2023-09-13T23:46:51.575Z,1.30
2023-09-13T23:49:21.979Z,1.43
2023-09-13T23:51:51.029Z,1.30
2023-09-13T23:54:20.048Z,1.17
2023-09-13T23:56:48.901Z,1.17
2023-09-13T23:59:19.362Z,1.27
